Startpagina
METAR-TAF:

METAR-TAF

Vliegvelden :

Luchthaven Rabat-Sale

Rabat, Marokko

breedte: 34-03N, lengte: 006-46W, hoogte: 84 m

Actueel weer

Dit bericht is 34 minuten geleden gemaakt, om 13:30 UTC
Wind 13 kt uit het noorden, variërend tussen het noordnoordwesten en het noordoosten
Temperatuur 19°C
Vochtigheid 73%
Druk 1021 hPa
Zicht: 8000 m
Verspreide wolken op 1300 ft
Gebroken wolken op 1600 ft

METAR: GMME 191330Z 36013KT 330V050 8000 R21/0900N SCT013 BKN016 19/14 Q1021 NOSIG

Tijdstip: 15:04 (14:04 UTC)

Verwachting

Dit bericht is 3 uur en het 4 minuten geleden gemaakt, om 11:00 UTC
Verwachting geldig van 19 om 12 UTC tot 20 om 18 UTC
Wind 11 kt uit het noorden
Zicht: 8000 m
Verspreide wolken op 1600 ft
Gebroken wolken op 2000 ft
Gebroken wolken op 20000 ft
Tijdelijke
van 19 om 20 UTC tot 20 om 12 UTC
Wind 2 kt uit variabele richting
Gebroken wolken op 1300 ft

TAF: GMME 191100Z 1912/2018 35011KT 8000 SCT016 BKN020 BKN200 TEMPO 1920/2012 VRB02KT BKN013

Waarnemingen en weersverwachtingen van meer dan 4000 vliegvelden (METAR en TAF).

De beschikbare stations zijn de gele en rode punten op de kaart.

Ga met uw muis naar het station om de naam te zien.

Klik dan om waarnemingen en weersverwachtingen te zien.

kaart wijzigen: klik op de groene knoppen met een zwart kruis om in te zoomen, op de groene knop met een streepje om uit te zoomen of op de groene pijlen voor aangrenzende kaarten.


METAR-TAF: